Time;durP1;ratioP1;P1;durP2;ratioP2;P2;SDS_P1;SDS_P2;PMS_P1;PMS_P2;Temp;Humidity;BMP_temperature;BMP_pressure;BME280_temperature;BME280_humidity;BME280_pressure;Samples;Min_cycle;Max_cycle;Signal;HPM_P1;HPM_P2
2021/04/15 00:01:52;;;;;;;3.83;3.50;;;;;;;;;;5136833;27;20232;-78
2021/04/15 00:04:18;;;;;;;3.87;3.60;;;;;;;;;;5136911;27;20244;-78
2021/04/15 00:06:45;;;;;;;4.37;3.63;;;;;;;;;;5136857;27;20251;-77
2021/04/15 00:09:13;;;;;;;5.67;3.53;;;;;;;;;;5137313;27;20239;-78
2021/04/15 00:11:40;;;;;;;11.10;3.30;;;;;;;;;;5136092;27;20251;-77
2021/04/15 00:14:06;;;;;;;5.80;3.90;;;;;;;;;;5136179;27;20235;-76
2021/04/15 00:16:33;;;;;;;7.60;4.40;;;;;;;;;;5136424;27;20535;-78
2021/04/15 00:19:00;;;;;;;4.60;3.67;;;;;;;;;;5136537;27;20227;-77
2021/04/15 00:21:26;;;;;;;4.43;3.63;;;;;;;;;;5137086;27;20445;-77
2021/04/15 00:23:53;;;;;;;3.53;3.23;;;;;;;;;;5136480;27;20636;-77
2021/04/15 00:26:20;;;;;;;6.77;3.90;;;;;;;;;;5136270;27;20232;-76
2021/04/15 00:28:48;;;;;;;5.53;3.77;;;;;;;;;;5136341;27;20227;-77
2021/04/15 00:31:14;;;;;;;6.00;3.30;;;;;;;;;;5136587;27;20228;-77
2021/04/15 00:33:40;;;;;;;5.20;3.03;;;;;;;;;;5136440;27;20231;-78
2021/04/15 00:36:07;;;;;;;3.60;3.30;;;;;;;;;;5136633;27;20211;-77
2021/04/15 00:38:33;;;;;;;8.13;3.73;;;;;;;;;;5135929;27;20239;-77
2021/04/15 00:40:59;;;;;;;3.50;3.20;;;;;;;;;;5136554;27;20544;-76
2021/04/15 00:43:27;;;;;;;3.23;3.03;;;;;;;;;;5135972;27;20204;-76
2021/04/15 00:45:55;;;;;;;4.83;3.33;;;;;;;;;;5136310;27;20263;-76
2021/04/15 00:48:27;;;;;;;10.80;3.77;;;;;;;;;;5135812;27;20635;-76
2021/04/15 00:50:54;;;;;;;3.53;3.13;;;;;;;;;;5134845;27;20200;-76
2021/04/15 00:53:23;;;;;;;3.47;3.17;;;;;;;;;;5135377;27;20235;-76
2021/04/15 00:55:49;;;;;;;6.50;3.53;;;;;;;;;;5136281;27;20229;-76
2021/04/15 00:58:16;;;;;;;3.27;3.03;;;;;;;;;;5135791;27;20619;-77
2021/04/15 01:00:42;;;;;;;7.83;3.67;;;;;;;;;;5136167;27;20220;-77
2021/04/15 01:03:09;;;;;;;4.97;3.10;;;;;;;;;;5135802;27;20196;-77
2021/04/15 01:05:36;;;;;;;5.17;3.23;;;;;;;;;;5135857;27;20251;-77
2021/04/15 01:08:03;;;;;;;6.80;3.13;;;;;;;;;;5135811;27;20608;-78
2021/04/15 01:10:32;;;;;;;6.53;3.67;;;;;;;;;;5135793;27;20473;-77
2021/04/15 01:13:16;;;;;;;6.23;3.70;;;;;;;;;;5135112;27;20270;-77
2021/04/15 01:15:57;;;;;;;5.23;3.50;;;;;;;;;;5135307;27;20232;-77
2021/04/15 01:18:26;;;;;;;2.97;2.73;;;;;;;;;;5135531;27;20282;-77
2021/04/15 01:21:09;;;;;;;3.47;3.17;;;;;;;;;;5135843;27;20246;-77
2021/04/15 01:23:37;;;;;;;3.43;3.10;;;;;;;;;;5135435;27;20208;-77
2021/04/15 01:26:18;;;;;;;5.63;3.10;;;;;;;;;;5135477;27;20258;-76
2021/04/15 01:28:55;;;;;;;3.40;3.10;;;;;;;;;;5135328;27;20241;-77
2021/04/15 01:31:23;;;;;;;3.63;2.80;;;;;;;;;;5135741;27;20196;-77
2021/04/15 01:33:53;;;;;;;3.13;2.80;;;;;;;;;;5134332;27;20192;-77
2021/04/15 01:36:24;;;;;;;4.37;2.93;;;;;;;;;;5135642;27;20612;-77
2021/04/15 01:38:52;;;;;;;6.10;2.93;;;;;;;;;;5135211;27;20232;-76
2021/04/15 01:41:21;;;;;;;3.97;3.00;;;;;;;;;;5135505;27;20624;-76
2021/04/15 01:43:51;;;;;;;5.57;2.90;;;;;;;;;;5135261;27;20232;-77
2021/04/15 01:46:19;;;;;;;6.23;3.47;;;;;;;;;;5135453;27;20278;-77
2021/04/15 01:48:46;;;;;;;3.47;3.10;;;;;;;;;;5135262;27;20232;-77
2021/04/15 01:51:15;;;;;;;5.07;2.90;;;;;;;;;;5135497;27;20540;-76
2021/04/15 01:53:42;;;;;;;3.00;2.80;;;;;;;;;;5135336;27;20373;-78
2021/04/15 01:56:10;;;;;;;6.37;3.10;;;;;;;;;;5135465;27;20228;-76
2021/04/15 01:58:40;;;;;;;6.13;3.03;;;;;;;;;;5135912;27;20204;-77
2021/04/15 02:01:09;;;;;;;5.67;3.10;;;;;;;;;;5139681;27;20214;-76
2021/04/15 02:03:36;;;;;;;4.80;3.33;;;;;;;;;;5139124;27;20224;-76
2021/04/15 02:06:03;;;;;;;8.97;3.20;;;;;;;;;;5139081;27;20244;-77
2021/04/15 02:08:31;;;;;;;3.23;2.90;;;;;;;;;;5138165;27;20561;-77
2021/04/15 02:10:58;;;;;;;3.17;2.93;;;;;;;;;;5139567;27;20200;-77
2021/04/15 02:13:26;;;;;;;4.67;2.93;;;;;;;;;;5138224;27;20251;-77
2021/04/15 02:15:54;;;;;;;3.43;3.20;;;;;;;;;;5139345;27;20227;-77
2021/04/15 02:18:22;;;;;;;8.47;3.27;;;;;;;;;;5138714;27;20231;-76
2021/04/15 02:20:50;;;;;;;3.30;3.00;;;;;;;;;;5138924;27;20207;-76
2021/04/15 02:23:20;;;;;;;3.73;3.23;;;;;;;;;;5138677;27;20239;-76
2021/04/15 02:25:49;;;;;;;5.90;3.10;;;;;;;;;;5139042;27;20646;-76
2021/04/15 02:28:17;;;;;;;6.67;3.37;;;;;;;;;;5138910;27;20215;-77
2021/04/15 02:30:44;;;;;;;4.33;3.93;;;;;;;;;;5138915;27;20735;-77
2021/04/15 02:33:15;;;;;;;2.80;2.60;;;;;;;;;;5138549;27;20205;-77
2021/04/15 02:35:43;;;;;;;4.33;3.43;;;;;;;;;;5138848;27;20200;-76
2021/04/15 02:38:11;;;;;;;8.50;3.30;;;;;;;;;;5138322;27;20243;-77
2021/04/15 02:40:38;;;;;;;3.93;3.27;;;;;;;;;;5138784;27;20224;-77
2021/04/15 02:43:08;;;;;;;5.43;3.50;;;;;;;;;;5138334;27;20228;-77
2021/04/15 02:45:38;;;;;;;5.40;3.70;;;;;;;;;;5138625;27;20553;-77
2021/04/15 02:48:06;;;;;;;6.70;3.30;;;;;;;;;;5138082;27;20234;-77
2021/04/15 02:50:33;;;;;;;5.73;3.30;;;;;;;;;;5138772;27;20204;-76
2021/04/15 02:53:05;;;;;;;5.90;3.63;;;;;;;;;;5138056;27;20232;-76
2021/04/15 02:55:34;;;;;;;4.23;3.80;;;;;;;;;;5138758;27;20224;-76
2021/04/15 02:58:03;;;;;;;7.33;3.53;;;;;;;;;;5138441;27;20640;-77
2021/04/15 03:00:31;;;;;;;7.07;3.53;;;;;;;;;;5138562;27;20204;-76
2021/04/15 03:02:59;;;;;;;3.87;3.50;;;;;;;;;;5136205;27;20762;-75
2021/04/15 03:05:26;;;;;;;4.53;4.00;;;;;;;;;;5138441;27;20332;-76
2021/04/15 03:07:54;;;;;;;3.97;3.67;;;;;;;;;;5137706;27;20561;-76
2021/04/15 03:10:23;;;;;;;5.37;4.23;;;;;;;;;;5137076;27;20298;-76
2021/04/15 03:12:52;;;;;;;5.67;3.90;;;;;;;;;;5135803;27;20282;-76
2021/04/15 03:15:20;;;;;;;4.73;3.93;;;;;;;;;;5138285;27;20231;-76
2021/04/15 03:17:47;;;;;;;9.17;4.60;;;;;;;;;;5137414;27;20654;-76
2021/04/15 03:20:16;;;;;;;5.50;4.10;;;;;;;;;;5138228;27;20254;-76
2021/04/15 03:22:47;;;;;;;4.60;4.10;;;;;;;;;;5137786;27;20232;-76
2021/04/15 03:25:13;;;;;;;7.60;4.20;;;;;;;;;;5137954;27;20255;-76
2021/04/15 03:27:43;;;;;;;5.03;4.47;;;;;;;;;;5137500;27;20604;-76
2021/04/15 03:30:11;;;;;;;5.00;4.13;;;;;;;;;;5137771;27;20219;-76
2021/04/15 03:32:39;;;;;;;8.47;4.77;;;;;;;;;;5137462;27;20212;-76
2021/04/15 03:35:07;;;;;;;4.80;4.30;;;;;;;;;;5137704;27;20231;-77
2021/04/15 03:37:35;;;;;;;6.10;4.73;;;;;;;;;;5137181;27;20300;-76
2021/04/15 03:40:02;;;;;;;8.47;4.83;;;;;;;;;;5137618;27;20580;-76
2021/04/15 03:42:30;;;;;;;5.27;4.53;;;;;;;;;;5136963;27;20239;-76
2021/04/15 03:45:00;;;;;;;6.27;4.70;;;;;;;;;;5135926;27;20240;-76
2021/04/15 03:47:29;;;;;;;8.73;5.10;;;;;;;;;;5136620;27;20538;-76
2021/04/15 03:49:58;;;;;;;5.20;4.70;;;;;;;;;;5136932;27;20624;-77
2021/04/15 03:52:27;;;;;;;6.23;5.63;;;;;;;;;;5137132;27;20232;-76
2021/04/15 03:54:55;;;;;;;6.00;5.40;;;;;;;;;;5137284;27;20231;-76
2021/04/15 03:57:24;;;;;;;5.47;4.97;;;;;;;;;;5137263;27;20608;-78
2021/04/15 03:59:53;;;;;;;9.83;5.40;;;;;;;;;;5137076;27;20224;-75
2021/04/15 04:02:22;;;;;;;9.80;5.40;;;;;;;;;;5137047;27;20542;-77
2021/04/15 04:04:50;;;;;;;5.53;5.07;;;;;;;;;;5137067;27;20248;-74
2021/04/15 04:07:20;;;;;;;8.60;5.90;;;;;;;;;;5136554;27;20231;-77
2021/04/15 04:09:50;;;;;;;8.23;6.20;;;;;;;;;;5136724;27;20600;-77
2021/04/15 04:12:20;;;;;;;8.07;5.40;;;;;;;;;;5136404;27;20224;-76
2021/04/15 04:14:51;;;;;;;10.23;5.97;;;;;;;;;;5136792;27;20631;-76
2021/04/15 04:17:20;;;;;;;7.93;5.80;;;;;;;;;;5136965;27;20228;-76
2021/04/15 04:19:49;;;;;;;6.70;6.07;;;;;;;;;;5136888;27;20223;-75
2021/04/15 04:22:19;;;;;;;8.32;7.20;;;;;;;;;;5135377;27;20783;-75
2021/04/15 04:24:46;;;;;;;6.77;6.13;;;;;;;;;;5136229;27;20549;-75
2021/04/15 04:27:16;;;;;;;12.53;6.70;;;;;;;;;;5136499;27;20224;-75
2021/04/15 04:29:46;;;;;;;8.37;6.20;;;;;;;;;;5136396;27;20616;-75
2021/04/15 04:32:14;;;;;;;7.20;6.10;;;;;;;;;;5136031;27;20208;-75
2021/04/15 04:34:40;;;;;;;7.67;6.10;;;;;;;;;;5136453;27;20239;-75
2021/04/15 04:37:10;;;;;;;8.20;6.57;;;;;;;;;;5136492;27;20228;-75
2021/04/15 04:39:37;;;;;;;8.70;6.50;;;;;;;;;;5136408;27;20608;-75
2021/04/15 04:42:05;;;;;;;8.77;6.30;;;;;;;;;;5136393;27;20236;-75
2021/04/15 04:44:35;;;;;;;11.30;6.70;;;;;;;;;;5135818;27;20538;-74
2021/04/15 04:47:04;;;;;;;9.50;6.93;;;;;;;;;;5136333;27;20283;-75
2021/04/15 04:49:32;;;;;;;8.07;6.70;;;;;;;;;;5136161;27;20215;-75
2021/04/15 04:51:59;;;;;;;8.00;7.27;;;;;;;;;;5136021;27;20232;-76
2021/04/15 04:54:27;;;;;;;10.23;8.10;;;;;;;;;;5135859;27;20802;-76
2021/04/15 04:56:55;;;;;;;13.10;8.07;;;;;;;;;;5135708;27;20247;-74
2021/04/15 04:59:29;;;;;;;8.20;7.40;;;;;;;;;;5135878;27;20783;-74
2021/04/15 05:01:55;;;;;;;9.63;7.00;;;;;;;;;;5135874;27;20220;-76
2021/04/15 05:04:22;;;;;;;7.77;6.37;;;;;;;;;;5134480;27;20208;-75
2021/04/15 05:06:49;;;;;;;9.73;7.40;;;;;;;;;;5136004;27;20255;-74
2021/04/15 05:09:18;;;;;;;8.07;7.07;;;;;;;;;;5136178;27;20229;-74
2021/04/15 05:11:47;;;;;;;8.97;7.50;;;;;;;;;;5135477;27;20258;-75
2021/04/15 05:14:15;;;;;;;8.30;7.50;;;;;;;;;;5135621;27;20254;-76
2021/04/15 05:16:44;;;;;;;11.17;7.57;;;;;;;;;;5136072;27;20200;-76
2021/04/15 05:19:10;;;;;;;9.60;7.73;;;;;;;;;;5135567;27;20489;-76
2021/04/15 05:21:38;;;;;;;11.53;8.20;;;;;;;;;;5135686;27;20229;-78
2021/04/15 05:24:06;;;;;;;14.63;8.50;;;;;;;;;;5135017;27;20223;-73
2021/04/15 05:26:34;;;;;;;10.40;7.97;;;;;;;;;;5134772;27;20632;-73
2021/04/15 05:29:03;;;;;;;9.03;8.00;;;;;;;;;;5134775;27;20239;-72
2021/04/15 05:31:32;;;;;;;13.57;8.47;;;;;;;;;;5135202;27;20227;-73
2021/04/15 05:33:59;;;;;;;9.23;8.10;;;;;;;;;;5134324;27;20204;-75
2021/04/15 05:36:27;;;;;;;13.25;11.07;;;;;;;;;;5134441;27;20790;-76
2021/04/15 05:38:54;;;;;;;12.70;11.47;;;;;;;;;;5135504;27;20227;-76
2021/04/15 05:41:22;;;;;;;14.83;10.77;;;;;;;;;;5132000;27;20220;-73
2021/04/15 05:43:50;;;;;;;10.90;9.13;;;;;;;;;;5134783;28;20231;-74
2021/04/15 05:46:19;;;;;;;10.43;8.10;;;;;;;;;;5134856;28;20638;-74
2021/04/15 05:48:46;;;;;;;9.30;8.40;;;;;;;;;;5134921;28;20224;-74
2021/04/15 05:51:14;;;;;;;9.73;8.30;;;;;;;;;;5134484;28;20224;-74
2021/04/15 05:53:42;;;;;;;10.00;7.93;;;;;;;;;;5134528;28;20231;-74
2021/04/15 05:56:10;;;;;;;13.37;8.73;;;;;;;;;;5133873;28;20261;-76
2021/04/15 05:58:38;;;;;;;10.53;8.97;;;;;;;;;;5134336;28;20224;-74
2021/04/15 06:01:06;;;;;;;11.00;9.17;;;;;;;;;;5134415;28;20292;-76
2021/04/15 06:03:37;;;;;;;11.73;8.67;;;;;;;;;;5134735;28;20235;-74
2021/04/15 06:06:05;;;;;;;10.73;8.40;;;;;;;;;;5134519;28;20254;-75
2021/04/15 06:08:34;;;;;;;8.67;7.50;;;;;;;;;;5134715;28;20232;-73
2021/04/15 06:11:07;;;;;;;11.40;9.27;;;;;;;;;;5134263;28;20625;-75
2021/04/15 06:13:38;;;;;;;13.53;10.60;;;;;;;;;;5133382;28;20633;-75
2021/04/15 06:16:05;;;;;;;14.60;10.80;;;;;;;;;;5134511;28;20231;-74
2021/04/15 06:18:34;;;;;;;15.00;11.23;;;;;;;;;;5134819;28;20513;-75
2021/04/15 06:21:04;;;;;;;12.87;10.33;;;;;;;;;;5134434;28;20248;-74
2021/04/15 06:23:32;;;;;;;9.57;8.60;;;;;;;;;;5134077;28;20211;-74
2021/04/15 06:25:59;;;;;;;8.30;7.57;;;;;;;;;;5134155;28;20252;-74
2021/04/15 06:28:27;;;;;;;8.13;7.43;;;;;;;;;;5134714;28;20695;-76
2021/04/15 06:31:04;;;;;;;8.73;7.83;;;;;;;;;;5134338;28;20224;-76
2021/04/15 06:33:30;;;;;;;9.50;8.20;;;;;;;;;;5134118;28;20529;-74
2021/04/15 06:35:59;;;;;;;9.53;7.33;;;;;;;;;;5134313;28;20200;-77
2021/04/15 06:38:30;;;;;;;8.67;7.83;;;;;;;;;;5133707;28;20236;-75
2021/04/15 06:41:05;;;;;;;8.23;7.53;;;;;;;;;;5133481;28;20232;-74
2021/04/15 06:43:41;;;;;;;9.10;8.13;;;;;;;;;;5133644;28;20239;-75
2021/04/15 06:46:14;;;;;;;9.50;8.20;;;;;;;;;;5137426;27;20243;-74
2021/04/15 06:48:58;;;;;;;11.37;8.60;;;;;;;;;;5138140;27;20227;-74
2021/04/15 06:51:31;;;;;;;9.17;8.20;;;;;;;;;;5137507;27;20235;-75
2021/04/15 06:54:10;;;;;;;10.50;8.47;;;;;;;;;;5138346;27;20239;-75
2021/04/15 06:56:41;;;;;;;10.27;8.27;;;;;;;;;;5138083;27;20239;-76
2021/04/15 06:59:11;;;;;;;9.30;8.07;;;;;;;;;;5137649;27;20227;-74
2021/04/15 07:01:47;;;;;;;12.03;8.30;;;;;;;;;;5137724;27;20228;-76
2021/04/15 07:04:15;;;;;;;8.63;7.73;;;;;;;;;;5137743;27;20236;-75
2021/04/15 07:06:51;;;;;;;8.67;7.87;;;;;;;;;;5137602;27;20250;-75
2021/04/15 07:09:41;;;;;;;9.13;8.20;;;;;;;;;;5137470;27;20255;-76
2021/04/15 07:12:17;;;;;;;9.00;8.10;;;;;;;;;;5136666;27;20668;-75
2021/04/15 07:14:55;;;;;;;11.87;8.03;;;;;;;;;;5137424;27;20500;-74
2021/04/15 07:17:39;;;;;;;8.90;8.03;;;;;;;;;;5137072;27;20217;-73
2021/04/15 07:20:26;;;;;;;8.90;8.03;;;;;;;;;;5137023;27;20204;-77
2021/04/15 07:23:01;;;;;;;9.37;8.20;;;;;;;;;;5119191;27;20670;-75
2021/04/15 07:25:37;;;;;;;10.30;8.20;;;;;;;;;;5136879;27;20707;-74
2021/04/15 07:28:30;;;;;;;9.00;8.07;;;;;;;;;;5136400;27;20288;-73
2021/04/15 07:31:06;;;;;;;9.73;7.73;;;;;;;;;;5088941;27;20204;-75
2021/04/15 07:33:46;;;;;;;9.27;7.90;;;;;;;;;;5137271;27;20517;-76
2021/04/15 07:36:28;;;;;;;15.93;8.00;;;;;;;;;;5137037;27;20196;-74
2021/04/15 07:39:20;;;;;;;9.93;7.57;;;;;;;;;;5092128;27;20228;-73
2021/04/15 07:41:57;;;;;;;8.73;7.80;;;;;;;;;;5136404;27;20608;-75
2021/04/15 07:44:26;;;;;;;9.30;8.13;;;;;;;;;;5137138;27;20225;-74
2021/04/15 07:46:58;;;;;;;8.53;7.60;;;;;;;;;;5137028;27;20252;-75
2021/04/15 07:49:41;;;;;;;8.90;7.67;;;;;;;;;;5136990;27;20237;-74
2021/04/15 07:52:18;;;;;;;10.77;7.70;;;;;;;;;;5136720;27;20503;-73
2021/04/15 07:55:00;;;;;;;8.70;7.83;;;;;;;;;;5137040;27;20236;-75
2021/04/15 07:57:41;;;;;;;8.83;7.67;;;;;;;;;;5135413;27;20612;-74
2021/04/15 08:00:24;;;;;;;7.80;7.10;;;;;;;;;;5119120;27;20303;-75
2021/04/15 08:03:06;;;;;;;8.17;6.97;;;;;;;;;;5118064;27;20526;-75
2021/04/15 08:05:47;;;;;;;9.43;7.43;;;;;;;;;;5137005;27;20544;-73
2021/04/15 08:08:34;;;;;;;8.77;7.47;;;;;;;;;;5135777;27;20235;-74
2021/04/15 08:11:30;;;;;;;8.87;7.27;;;;;;;;;;5136332;27;20204;-74
2021/04/15 08:14:06;;;;;;;9.53;8.10;;;;;;;;;;5051420;28;20238;-74
2021/04/15 08:16:43;;;;;;;11.93;8.23;;;;;;;;;;5122190;27;20204;-73
2021/04/15 08:19:29;;;;;;;10.10;7.37;;;;;;;;;;5135717;27;20259;-74
2021/04/15 08:21:59;;;;;;;8.83;7.93;;;;;;;;;;5136446;27;20192;-74
2021/04/15 08:24:34;;;;;;;9.63;7.00;;;;;;;;;;5136324;27;20228;-74
2021/04/15 08:27:15;;;;;;;8.10;7.30;;;;;;;;;;5135560;27;20254;-75
2021/04/15 08:29:48;;;;;;;7.80;7.00;;;;;;;;;;5136025;27;20272;-74
2021/04/15 08:32:24;;;;;;;7.77;6.97;;;;;;;;;;5135771;27;20243;-74
2021/04/15 08:34:56;;;;;;;8.93;6.77;;;;;;;;;;5135239;27;20700;-75
2021/04/15 08:37:34;;;;;;;7.70;6.87;;;;;;;;;;5135730;27;20273;-76
2021/04/15 08:40:18;;;;;;;12.27;6.80;;;;;;;;;;5135713;27;20196;-74
2021/04/15 08:42:50;;;;;;;7.40;6.70;;;;;;;;;;5134851;27;20204;-75
2021/04/15 08:45:31;;;;;;;7.57;6.70;;;;;;;;;;5136537;27;20261;-75
2021/04/15 08:48:11;;;;;;;7.13;6.43;;;;;;;;;;5135905;27;20269;-74
2021/04/15 08:50:46;;;;;;;8.40;6.57;;;;;;;;;;5136158;27;20241;-73
2021/04/15 08:53:18;;;;;;;7.13;6.53;;;;;;;;;;5135884;27;20508;-74
2021/04/15 08:55:46;;;;;;;7.30;6.60;;;;;;;;;;5136217;27;20204;-74
2021/04/15 08:58:20;;;;;;;8.53;6.40;;;;;;;;;;5135407;27;20231;-74
2021/04/15 09:00:51;;;;;;;7.40;6.47;;;;;;;;;;5135799;27;20231;-73
2021/04/15 09:03:22;;;;;;;7.70;5.47;;;;;;;;;;5135638;27;20611;-75
2021/04/15 09:06:03;;;;;;;6.63;6.03;;;;;;;;;;5135957;27;20251;-75
2021/04/15 09:08:32;;;;;;;7.43;5.90;;;;;;;;;;5134279;27;20269;-75
2021/04/15 09:11:04;;;;;;;7.20;6.60;;;;;;;;;;5135771;27;20176;-76
2021/04/15 09:13:34;;;;;;;6.47;5.90;;;;;;;;;;5134605;27;20243;-75
2021/04/15 09:16:12;;;;;;;8.20;6.67;;;;;;;;;;5136061;27;20200;-76
2021/04/15 09:18:41;;;;;;;8.23;6.23;;;;;;;;;;5133730;27;20236;-76
2021/04/15 09:21:15;;;;;;;6.67;5.97;;;;;;;;;;5134589;27;20204;-76
2021/04/15 09:23:46;;;;;;;6.53;5.83;;;;;;;;;;5134734;27;20231;-76
2021/04/15 09:26:20;;;;;;;6.30;5.70;;;;;;;;;;5135513;27;20239;-74
2021/04/15 09:28:52;;;;;;;10.10;6.20;;;;;;;;;;5134800;27;20352;-74
2021/04/15 09:31:22;;;;;;;7.43;5.23;;;;;;;;;;5122235;27;20231;-73
2021/04/15 09:34:03;;;;;;;6.43;5.83;;;;;;;;;;5126937;27;20235;-74
2021/04/15 09:36:34;;;;;;;5.37;4.97;;;;;;;;;;5126527;27;20620;-74
2021/04/15 09:39:05;;;;;;;5.30;4.90;;;;;;;;;;5131421;27;20540;-74
2021/04/15 09:41:42;;;;;;;5.57;5.17;;;;;;;;;;5122385;28;20227;-74
2021/04/15 09:44:15;;;;;;;6.23;5.47;;;;;;;;;;5122692;28;20220;-74
2021/04/15 09:46:50;;;;;;;5.73;5.23;;;;;;;;;;5122897;28;20243;-74
2021/04/15 09:49:31;;;;;;;5.97;4.83;;;;;;;;;;5122587;28;20227;-76
2021/04/15 09:52:19;;;;;;;5.50;5.10;;;;;;;;;;5132449;28;20798;-74
2021/04/15 09:54:49;;;;;;;5.33;4.80;;;;;;;;;;5134979;28;20229;-77
2021/04/15 09:57:21;;;;;;;5.97;5.37;;;;;;;;;;5135113;28;20228;-74
2021/04/15 10:00:03;;;;;;;5.13;4.73;;;;;;;;;;5134103;28;20224;-75
2021/04/15 10:02:32;;;;;;;4.93;4.63;;;;;;;;;;5134516;28;20231;-74
2021/04/15 10:05:02;;;;;;;7.27;4.83;;;;;;;;;;5113867;28;20251;-74
2021/04/15 10:07:31;;;;;;;5.73;5.10;;;;;;;;;;5114347;28;20636;-75
2021/04/15 10:10:11;;;;;;;5.90;5.17;;;;;;;;;;5114062;28;20640;-78
2021/04/15 10:12:52;;;;;;;4.80;4.40;;;;;;;;;;5113347;28;20266;-77
2021/04/15 10:15:26;;;;;;;7.00;4.60;;;;;;;;;;5114255;28;20209;-76
2021/04/15 10:18:00;;;;;;;6.33;4.20;;;;;;;;;;5114193;28;20197;-76
2021/04/15 10:20:45;;;;;;;7.87;4.30;;;;;;;;;;5116001;28;20534;-76
2021/04/15 10:23:17;;;;;;;4.97;3.90;;;;;;;;;;5118118;28;20492;-79
2021/04/15 10:25:45;;;;;;;4.50;4.10;;;;;;;;;;5118408;28;20556;-77
2021/04/15 10:28:35;;;;;;;4.83;4.33;;;;;;;;;;5118059;28;20239;-76
2021/04/15 10:31:18;;;;;;;5.97;4.33;;;;;;;;;;5106972;27;20212;-76
2021/04/15 10:33:52;;;;;;;5.03;4.40;;;;;;;;;;5118325;28;20240;-76
2021/04/15 10:36:45;;;;;;;5.40;4.83;;;;;;;;;;5099844;28;20197;-74
2021/04/15 10:39:19;;;;;;;4.60;4.27;;;;;;;;;;5117934;28;20609;-74
2021/04/15 10:42:00;;;;;;;4.33;3.90;;;;;;;;;;5133157;27;20221;-75
2021/04/15 10:44:36;;;;;;;3.80;3.50;;;;;;;;;;5137677;27;20277;-74
2021/04/15 10:47:13;;;;;;;4.93;4.53;;;;;;;;;;5138385;27;20251;-74
2021/04/15 10:49:47;;;;;;;6.87;4.90;;;;;;;;;;5119749;27;20200;-75
2021/04/15 10:52:21;;;;;;;6.50;5.43;;;;;;;;;;5138370;27;20204;-74
2021/04/15 10:54:48;;;;;;;3.93;3.63;;;;;;;;;;5137294;27;20204;-73
2021/04/15 10:57:15;;;;;;;8.57;3.40;;;;;;;;;;5138217;27;20619;-74
2021/04/15 10:59:42;;;;;;;7.97;3.37;;;;;;;;;;5137768;27;20238;-74
2021/04/15 11:02:23;;;;;;;3.00;2.70;;;;;;;;;;5137885;27;20559;-74
2021/04/15 11:04:51;;;;;;;3.10;2.80;;;;;;;;;;5137388;27;20232;-74
2021/04/15 11:07:19;;;;;;;3.73;1.90;;;;;;;;;;5137639;27;20290;-75
2021/04/15 11:09:46;;;;;;;2.80;1.70;;;;;;;;;;5137585;27;20620;-74
2021/04/15 11:12:30;;;;;;;1.57;1.40;;;;;;;;;;5137038;27;20577;-75
2021/04/15 11:15:08;;;;;;;1.37;1.30;;;;;;;;;;5137516;27;20540;-74
2021/04/15 11:17:37;;;;;;;1.20;1.10;;;;;;;;;;5137043;27;20224;-74
2021/04/15 11:20:09;;;;;;;1.80;1.70;;;;;;;;;;5136689;27;20262;-74
2021/04/15 11:22:36;;;;;;;1.53;1.53;;;;;;;;;;5137524;27;20228;-74
2021/04/15 11:25:11;;;;;;;3.63;2.70;;;;;;;;;;5137239;27;20512;-76
2021/04/15 11:27:37;;;;;;;1.83;1.57;;;;;;;;;;5134793;27;20266;-74
2021/04/15 11:30:05;;;;;;;2.67;1.70;;;;;;;;;;5136846;27;20257;-76
2021/04/15 11:32:38;;;;;;;2.03;1.93;;;;;;;;;;5135814;27;20224;-75
2021/04/15 11:35:07;;;;;;;1.80;1.70;;;;;;;;;;5137161;27;20242;-78
2021/04/15 11:37:33;;;;;;;2.17;1.80;;;;;;;;;;5136352;27;20747;-77
2021/04/15 11:40:17;;;;;;;2.23;2.13;;;;;;;;;;5136942;27;20232;-78
2021/04/15 11:42:44;;;;;;;2.50;2.20;;;;;;;;;;5136924;27;20541;-76
2021/04/15 11:45:11;;;;;;;3.07;2.83;;;;;;;;;;5137641;27;20200;-75
2021/04/15 11:47:38;;;;;;;3.70;2.80;;;;;;;;;;5136850;27;20256;-76
2021/04/15 11:50:09;;;;;;;3.97;3.47;;;;;;;;;;5136905;27;20642;-76
2021/04/15 11:52:38;;;;;;;5.67;3.53;;;;;;;;;;5136785;27;20204;-75
2021/04/15 11:55:11;;;;;;;5.90;3.47;;;;;;;;;;5133734;27;20228;-78
2021/04/15 11:57:38;;;;;;;4.07;3.77;;;;;;;;;;5136802;27;20231;-76
2021/04/15 12:00:13;;;;;;;4.47;4.07;;;;;;;;;;5136832;27;20228;-75
2021/04/15 12:02:42;;;;;;;4.67;3.33;;;;;;;;;;5136177;27;20227;-76
2021/04/15 12:05:09;;;;;;;3.10;2.90;;;;;;;;;;5133248;27;20219;-75
2021/04/15 12:07:36;;;;;;;4.00;3.10;;;;;;;;;;5136362;27;20624;-76
2021/04/15 12:10:03;;;;;;;3.47;3.17;;;;;;;;;;5136287;27;20223;-75
2021/04/15 12:12:32;;;;;;;3.37;2.90;;;;;;;;;;5135531;27;20248;-76
2021/04/15 12:14:59;;;;;;;2.93;2.60;;;;;;;;;;5137002;27;20223;-76
2021/04/15 12:17:30;;;;;;;2.83;2.60;;;;;;;;;;5136774;27;20232;-76
2021/04/15 12:20:04;;;;;;;2.60;2.40;;;;;;;;;;5136431;27;20224;-76
2021/04/15 12:22:35;;;;;;;2.80;2.70;;;;;;;;;;5136179;27;20226;-76
2021/04/15 12:25:03;;;;;;;2.40;2.30;;;;;;;;;;5118404;27;20204;-76
2021/04/15 12:27:31;;;;;;;3.57;2.27;;;;;;;;;;5136354;27;20252;-80
2021/04/15 12:30:00;;;;;;;3.30;2.22;;;;;;;;;;5135719;27;20794;-74
2021/04/15 12:32:33;;;;;;;2.27;2.17;;;;;;;;;;5137480;27;20182;-87
2021/04/15 12:35:15;;;;;;;2.37;2.10;;;;;;;;;;5136599;27;20204;-79
2021/04/15 12:37:42;;;;;;;2.37;2.13;;;;;;;;;;5137744;27;20230;-76
2021/04/15 12:40:14;;;;;;;2.53;2.13;;;;;;;;;;5137058;27;20203;-79
2021/04/15 12:42:41;;;;;;;2.10;2.00;;;;;;;;;;5135923;27;20196;-74
2021/04/15 12:45:11;;;;;;;5.13;2.30;;;;;;;;;;5118163;27;20610;-77
2021/04/15 12:47:39;;;;;;;2.50;2.30;;;;;;;;;;5135838;27;20274;-78
2021/04/15 12:50:06;;;;;;;2.80;2.60;;;;;;;;;;5134223;27;20790;-74
2021/04/15 12:52:33;;;;;;;2.47;2.27;;;;;;;;;;5135718;27;20204;-78
2021/04/15 12:55:00;;;;;;;2.60;2.00;;;;;;;;;;5136379;27;20632;-80
2021/04/15 12:57:28;;;;;;;2.20;2.00;;;;;;;;;;5135939;27;20212;-80
2021/04/15 12:59:55;;;;;;;2.47;2.27;;;;;;;;;;5135124;27;20235;-80
2021/04/15 13:02:22;;;;;;;2.60;2.40;;;;;;;;;;5136071;27;20200;-77
2021/04/15 13:04:52;;;;;;;2.63;2.20;;;;;;;;;;5135179;27;20238;-77
2021/04/15 13:07:29;;;;;;;3.17;2.40;;;;;;;;;;5135427;27;20247;-76
2021/04/15 13:10:10;;;;;;;3.60;2.47;;;;;;;;;;5135233;27;20246;-79
2021/04/15 13:12:38;;;;;;;3.30;2.20;;;;;;;;;;5133954;27;20247;-78
2021/04/15 13:15:05;;;;;;;3.57;2.10;;;;;;;;;;5135545;27;20518;-77
2021/04/15 13:17:55;;;;;;;2.67;1.80;;;;;;;;;;5135971;27;20223;-76
2021/04/15 13:20:36;;;;;;;2.33;2.00;;;;;;;;;;5109710;27;20273;-75
2021/04/15 13:23:17;;;;;;;8.10;2.00;;;;;;;;;;5135554;27;20608;-77
2021/04/15 13:25:58;;;;;;;2.10;2.00;;;;;;;;;;5135730;27;20196;-76
2021/04/15 13:28:26;;;;;;;1.70;1.70;;;;;;;;;;5134818;27;20252;-76
2021/04/15 13:31:01;;;;;;;1.90;1.80;;;;;;;;;;5134678;27;20603;-83
2021/04/15 13:33:42;;;;;;;3.47;2.30;;;;;;;;;;5136975;27;20508;-76
2021/04/15 13:36:20;;;;;;;2.03;1.93;;;;;;;;;;5115027;27;20260;-79
2021/04/15 13:39:01;;;;;;;1.50;1.50;;;;;;;;;;5135089;27;20588;-85
2021/04/15 13:41:46;;;;;;;2.40;2.20;;;;;;;;;;5135893;27;20484;-84
2021/04/15 13:44:33;;;;;;;2.57;2.37;;;;;;;;;;5136915;28;20200;-86
2021/04/15 13:47:20;;;;;;;3.63;2.73;;;;;;;;;;5136294;28;20246;-78
2021/04/15 13:49:48;;;;;;;4.77;2.47;;;;;;;;;;5135532;28;20200;-81
2021/04/15 13:52:28;;;;;;;3.67;2.43;;;;;;;;;;5135090;28;20265;-81
2021/04/15 13:54:54;;;;;;;7.77;2.53;;;;;;;;;;5136047;27;20672;-80
2021/04/15 13:57:21;;;;;;;2.80;2.60;;;;;;;;;;5139815;27;20188;-78
2021/04/15 13:59:54;;;;;;;2.47;2.10;;;;;;;;;;5139013;27;20532;-76
2021/04/15 14:02:42;;;;;;;7.27;2.40;;;;;;;;;;5136835;27;20232;-82
2021/04/15 14:05:40;;;;;;;2.63;2.43;;;;;;;;;;5137872;27;20231;-80
2021/04/15 14:08:30;;;;;;;3.90;2.67;;;;;;;;;;5137918;27;20262;-86
2021/04/15 14:10:56;;;;;;;2.30;2.20;;;;;;;;;;5136154;27;20268;-75
2021/04/15 14:13:24;;;;;;;2.90;2.47;;;;;;;;;;5138121;27;20244;-84
2021/04/15 14:15:51;;;;;;;2.37;2.20;;;;;;;;;;5139836;27;20200;-80
2021/04/15 14:18:22;;;;;;;2.70;2.50;;;;;;;;;;5137408;27;20196;-81
2021/04/15 14:20:49;;;;;;;3.33;2.60;;;;;;;;;;5139546;27;20239;-79
2021/04/15 14:23:19;;;;;;;5.73;2.60;;;;;;;;;;5140300;27;20189;-85
2021/04/15 14:25:45;;;;;;;2.63;2.40;;;;;;;;;;5139748;27;20596;-78
2021/04/15 14:28:14;;;;;;;3.93;2.33;;;;;;;;;;5139535;27;20262;-86
2021/04/15 14:30:40;;;;;;;6.13;3.13;;;;;;;;;;5136934;27;20209;-76
2021/04/15 14:33:17;;;;;;;2.75;2.55;;;;;;;;;;5139487;27;20238;-76
2021/04/15 14:35:44;;;;;;;2.45;2.25;;;;;;;;;;5138253;27;20215;-81
2021/04/15 14:38:13;;;;;;;4.85;2.67;;;;;;;;;;5139880;27;20192;-81
2021/04/15 14:40:41;;;;;;;2.38;2.25;;;;;;;;;;5136193;27;20269;-84
2021/04/15 14:43:26;;;;;;;2.42;2.22;;;;;;;;;;5137857;27;20235;-81
2021/04/15 14:45:52;;;;;;;2.70;2.50;;;;;;;;;;5138666;27;20200;-78
2021/04/15 14:48:26;;;;;;;2.25;2.08;;;;;;;;;;5139426;27;20243;-83
2021/04/15 14:51:01;;;;;;;2.60;2.20;;;;;;;;;;5138823;27;20794;-86
2021/04/15 14:53:29;;;;;;;2.25;2.10;;;;;;;;;;5140827;27;20264;-79
2021/04/15 14:56:06;;;;;;;4.35;2.35;;;;;;;;;;5142259;27;20621;-89
2021/04/15 14:58:32;;;;;;;2.92;1.88;;;;;;;;;;5143894;27;20655;-77
2021/04/15 15:00:59;;;;;;;2.45;2.25;;;;;;;;;;5141424;27;20204;-84
2021/04/15 15:03:28;;;;;;;2.75;2.58;;;;;;;;;;5140802;27;20611;-85
2021/04/15 15:05:55;;;;;;;2.92;2.10;;;;;;;;;;5141724;27;20204;-84
2021/04/15 15:08:22;;;;;;;3.28;1.90;;;;;;;;;;5140400;27;20262;-88